createdAt,value
2022-09-30T00:01:12.766Z,10.27
2022-09-30T00:03:40.467Z,9.93
2022-09-30T00:06:09.265Z,11.23
2022-09-30T00:08:37.648Z,10.63
2022-09-30T00:11:08.872Z,10.60
2022-09-30T00:13:40.083Z,10.30
2022-09-30T00:16:10.244Z,10.20
2022-09-30T00:18:38.478Z,11.17
2022-09-30T00:21:07.223Z,11.37
2022-09-30T00:23:36.274Z,8.90
2022-09-30T00:26:07.787Z,7.17
2022-09-30T00:28:36.019Z,7.30
2022-09-30T00:31:06.432Z,8.33
2022-09-30T00:33:34.155Z,8.53
2022-09-30T00:36:02.285Z,9.27
2022-09-30T00:38:30.002Z,10.37
2022-09-30T00:40:59.682Z,9.57
2022-09-30T00:43:42.900Z,10.23
2022-09-30T00:46:20.794Z,10.30
2022-09-30T00:48:53.964Z,11.57
2022-09-30T00:51:28.368Z,11.53
2022-09-30T00:53:59.128Z,12.40
2022-09-30T00:56:29.308Z,10.10
2022-09-30T00:59:04.304Z,9.83
2022-09-30T01:01:32.669Z,9.40
2022-09-30T01:04:03.178Z,11.50
2022-09-30T01:06:31.012Z,10.20
2022-09-30T01:08:59.576Z,10.27
2022-09-30T01:11:28.682Z,9.57
2022-09-30T01:14:03.663Z,9.23
2022-09-30T01:16:49.752Z,10.73
2022-09-30T01:19:30.220Z,9.77
2022-09-30T01:22:19.271Z,11.13
2022-09-30T01:25:17.602Z,10.30
2022-09-30T01:28:17.491Z,10.30
2022-09-30T01:31:03.524Z,10.57
2022-09-30T01:33:43.144Z,11.00
2022-09-30T01:36:29.143Z,10.07
2022-09-30T01:39:11.795Z,10.90
2022-09-30T01:41:45.765Z,11.30
2022-09-30T01:44:20.073Z,13.80
2022-09-30T01:46:55.791Z,16.70
2022-09-30T01:49:32.279Z,11.27
2022-09-30T01:52:06.988Z,10.57
2022-09-30T01:54:42.111Z,10.93
2022-09-30T01:57:16.725Z,12.67
2022-09-30T01:59:48.773Z,10.70
2022-09-30T02:02:21.813Z,10.37
2022-09-30T02:04:55.495Z,10.40
2022-09-30T02:07:27.751Z,12.27
2022-09-30T02:10:01.422Z,16.73
2022-09-30T02:12:34.232Z,11.03
2022-09-30T02:15:07.559Z,10.47
2022-09-30T02:17:43.056Z,10.30
2022-09-30T02:20:17.431Z,11.27
2022-09-30T02:22:50.579Z,10.30
2022-09-30T02:25:24.075Z,10.77
2022-09-30T02:27:56.573Z,10.27
2022-09-30T02:30:24.442Z,10.27
2022-09-30T02:32:57.923Z,10.50
2022-09-30T02:35:29.692Z,11.00
2022-09-30T02:38:03.419Z,10.67
2022-09-30T02:40:36.865Z,10.17
2022-09-30T02:43:06.191Z,10.33
2022-09-30T02:45:44.082Z,9.53
2022-09-30T02:48:27.572Z,10.67
2022-09-30T02:51:03.843Z,10.73
2022-09-30T02:53:39.750Z,10.07
2022-09-30T02:56:20.624Z,10.10
2022-09-30T02:58:50.746Z,9.33
2022-09-30T03:01:18.832Z,9.13
2022-09-30T03:03:51.515Z,8.90
2022-09-30T03:06:20.298Z,8.47
2022-09-30T03:08:48.499Z,8.57
2022-09-30T03:11:19.079Z,8.87
2022-09-30T03:14:05.075Z,9.47
2022-09-30T03:16:48.884Z,9.20
2022-09-30T03:19:35.581Z,10.87
2022-09-30T03:22:25.708Z,8.50
2022-09-30T03:25:12.075Z,8.77
2022-09-30T03:27:48.770Z,8.70
2022-09-30T03:30:24.118Z,9.27
2022-09-30T03:33:05.840Z,9.00
2022-09-30T03:35:46.782Z,9.57
2022-09-30T03:38:23.960Z,9.30
2022-09-30T03:41:02.550Z,9.73
2022-09-30T03:43:36.460Z,10.00
2022-09-30T03:46:11.052Z,10.40
2022-09-30T03:48:40.504Z,10.20
2022-09-30T03:51:10.540Z,10.37
2022-09-30T03:53:42.077Z,10.10
2022-09-30T03:56:10.167Z,10.57
2022-09-30T03:58:41.859Z,9.50
2022-09-30T04:01:19.164Z,9.70
2022-09-30T04:03:47.675Z,9.80
2022-09-30T04:06:16.716Z,10.63
2022-09-30T04:08:44.795Z,11.33
2022-09-30T04:11:12.927Z,11.63
2022-09-30T04:13:40.656Z,11.90
2022-09-30T04:16:09.088Z,10.73
2022-09-30T04:18:38.263Z,10.50
2022-09-30T04:21:07.602Z,12.17
2022-09-30T04:23:37.948Z,11.53
2022-09-30T04:26:06.972Z,12.57
2022-09-30T04:28:35.036Z,13.20
2022-09-30T04:31:03.978Z,13.57
2022-09-30T04:33:32.214Z,13.70
2022-09-30T04:36:01.532Z,13.40
2022-09-30T04:38:29.795Z,13.50
2022-09-30T04:40:59.067Z,13.60
2022-09-30T04:43:26.797Z,14.40
2022-09-30T04:45:54.621Z,15.07
2022-09-30T04:48:23.277Z,26.53
2022-09-30T04:50:51.506Z,19.30
2022-09-30T04:53:19.790Z,12.97
2022-09-30T04:55:47.661Z,18.53
2022-09-30T04:58:16.980Z,24.87
2022-09-30T05:00:44.711Z,16.30
2022-09-30T05:03:12.465Z,13.90
2022-09-30T05:05:40.688Z,17.40
2022-09-30T05:08:08.403Z,15.33
2022-09-30T05:10:36.123Z,14.03
2022-09-30T05:13:03.816Z,14.20
2022-09-30T05:15:35.508Z,14.97
2022-09-30T05:18:03.174Z,16.20
2022-09-30T05:20:30.850Z,15.60
2022-09-30T05:22:59.645Z,13.63
2022-09-30T05:25:27.400Z,13.23
2022-09-30T05:27:55.117Z,12.80
2022-09-30T05:30:22.994Z,12.50
2022-09-30T05:32:52.206Z,12.90
2022-09-30T05:35:19.899Z,13.03
2022-09-30T05:37:47.614Z,12.97
2022-09-30T05:40:15.307Z,31.43
2022-09-30T05:42:47.085Z,13.33
2022-09-30T05:45:14.917Z,13.03
2022-09-30T05:47:42.746Z,14.03
2022-09-30T05:50:11.957Z,13.07
2022-09-30T05:52:39.651Z,14.17
2022-09-30T05:55:07.839Z,13.93
2022-09-30T05:57:36.261Z,14.73
2022-09-30T06:00:04.352Z,17.13
2022-09-30T06:02:39.655Z,15.77
2022-09-30T06:05:08.040Z,14.70
2022-09-30T06:07:38.598Z,14.57
2022-09-30T06:10:09.159Z,14.23
2022-09-30T06:12:37.101Z,15.20
2022-09-30T06:15:05.381Z,17.50
2022-09-30T06:17:33.077Z,18.87
2022-09-30T06:20:01.023Z,21.10
2022-09-30T06:22:28.932Z,22.03
2022-09-30T06:24:58.157Z,21.60
2022-09-30T06:27:25.867Z,22.93
2022-09-30T06:29:53.531Z,23.77
2022-09-30T06:32:21.280Z,23.83
2022-09-30T06:34:49.003Z,22.87
2022-09-30T06:37:18.485Z,23.93
2022-09-30T06:39:46.183Z,24.30
2022-09-30T06:42:15.272Z,21.87
2022-09-30T06:44:52.206Z,23.93
2022-09-30T06:47:25.526Z,21.17
2022-09-30T06:49:58.515Z,21.43
2022-09-30T06:52:27.219Z,23.90
2022-09-30T06:54:56.554Z,22.50
2022-09-30T06:57:28.026Z,22.47
2022-09-30T06:59:56.203Z,22.13
2022-09-30T07:02:24.014Z,25.00
2022-09-30T07:04:51.736Z,23.50
2022-09-30T07:07:22.182Z,22.93
2022-09-30T07:09:50.041Z,20.77
2022-09-30T07:12:18.066Z,20.47
2022-09-30T07:14:47.868Z,20.00
2022-09-30T07:17:15.709Z,19.03
2022-09-30T07:19:43.452Z,18.80
2022-09-30T07:22:29.972Z,17.77
2022-09-30T07:24:59.163Z,17.27
2022-09-30T07:27:28.226Z,18.23
2022-09-30T07:30:08.919Z,18.67
2022-09-30T07:32:39.554Z,19.43
2022-09-30T07:35:12.476Z,19.23
2022-09-30T07:37:40.635Z,20.03
2022-09-30T07:40:09.843Z,17.60
2022-09-30T07:42:40.841Z,16.50
2022-09-30T07:45:11.182Z,14.27
2022-09-30T07:47:39.300Z,16.00
2022-09-30T07:50:15.441Z,16.47
2022-09-30T07:52:43.244Z,16.10
2022-09-30T07:55:11.077Z,16.50
2022-09-30T07:57:39.232Z,16.57
2022-09-30T08:00:29.892Z,17.73
2022-09-30T08:02:57.529Z,15.10
2022-09-30T08:05:25.381Z,17.93
2022-09-30T08:07:53.439Z,16.10
2022-09-30T08:10:21.347Z,15.27
2022-09-30T08:12:49.304Z,16.80
2022-09-30T08:15:17.413Z,15.77
2022-09-30T08:17:45.307Z,15.93
2022-09-30T08:20:18.768Z,16.90
2022-09-30T08:22:52.955Z,16.53
2022-09-30T08:25:20.777Z,17.00
2022-09-30T08:27:48.641Z,19.13
2022-09-30T08:30:16.691Z,17.17
2022-09-30T08:32:44.782Z,17.43
2022-09-30T08:35:13.960Z,17.67
2022-09-30T08:37:41.801Z,17.90
2022-09-30T08:40:18.758Z,16.77
2022-09-30T08:43:01.118Z,16.07
2022-09-30T08:45:36.914Z,17.23
2022-09-30T08:48:20.298Z,17.00
2022-09-30T08:51:00.848Z,18.60
2022-09-30T08:53:32.450Z,18.17
2022-09-30T08:56:02.677Z,18.87
2022-09-30T08:58:33.486Z,18.13
2022-09-30T09:01:09.560Z,18.23
2022-09-30T09:03:37.518Z,16.60
2022-09-30T09:06:19.651Z,17.23
2022-09-30T09:09:04.963Z,16.80
2022-09-30T09:11:47.954Z,16.87
2022-09-30T09:14:27.417Z,15.97
2022-09-30T09:17:10.680Z,17.57
2022-09-30T09:19:46.769Z,16.57
2022-09-30T09:22:16.919Z,17.20
2022-09-30T09:24:50.640Z,15.20
2022-09-30T09:27:21.529Z,15.20
2022-09-30T09:30:01.348Z,14.93
2022-09-30T09:32:30.326Z,13.43
2022-09-30T09:35:02.525Z,13.30
2022-09-30T09:37:58.423Z,13.57
2022-09-30T09:40:35.626Z,12.70
2022-09-30T09:43:13.326Z,11.77
2022-09-30T09:45:50.031Z,11.37
2022-09-30T09:48:17.910Z,11.70
2022-09-30T09:50:56.989Z,11.90
2022-09-30T09:53:49.022Z,11.40
2022-09-30T09:56:21.933Z,11.13
2022-09-30T09:59:10.090Z,10.83
2022-09-30T10:01:41.120Z,11.60
2022-09-30T10:04:17.766Z,11.03
2022-09-30T10:06:48.523Z,10.77
2022-09-30T10:09:32.208Z,12.10
2022-09-30T10:12:19.885Z,12.30
2022-09-30T10:14:54.118Z,12.17
2022-09-30T10:17:29.337Z,12.23
2022-09-30T10:20:01.911Z,11.27
2022-09-30T10:22:31.771Z,11.33
2022-09-30T10:25:23.708Z,11.87
2022-09-30T10:27:55.160Z,10.37
2022-09-30T10:30:39.346Z,10.57
2022-09-30T10:33:22.772Z,9.10
2022-09-30T10:35:56.123Z,10.60
2022-09-30T10:38:26.154Z,9.70
2022-09-30T10:40:55.555Z,11.20
2022-09-30T10:43:28.126Z,10.13
2022-09-30T10:46:20.923Z,9.10
2022-09-30T10:48:50.576Z,9.53
2022-09-30T10:51:26.037Z,9.13
2022-09-30T10:53:54.420Z,9.57
2022-09-30T10:56:42.387Z,8.30
2022-09-30T10:59:20.750Z,8.70
2022-09-30T11:01:55.143Z,8.63
2022-09-30T11:04:31.584Z,8.40
2022-09-30T11:07:11.345Z,8.27
2022-09-30T11:09:45.411Z,8.57
2022-09-30T11:12:22.877Z,7.50
2022-09-30T11:14:58.860Z,7.60
2022-09-30T11:17:34.977Z,7.87
2022-09-30T11:20:12.698Z,9.17
2022-09-30T11:22:58.170Z,7.60
2022-09-30T11:25:35.505Z,8.20
2022-09-30T11:28:17.963Z,8.07
2022-09-30T11:30:55.919Z,8.03
2022-09-30T11:33:36.155Z,8.10
2022-09-30T11:36:17.024Z,8.00
2022-09-30T11:39:04.637Z,7.73
2022-09-30T11:41:36.818Z,7.43
2022-09-30T11:44:21.625Z,8.90
2022-09-30T11:47:20.852Z,8.30
2022-09-30T11:50:08.680Z,7.73
2022-09-30T11:52:47.969Z,7.63
2022-09-30T11:55:36.452Z,7.17
2022-09-30T11:58:28.491Z,7.77
2022-09-30T12:01:01.644Z,7.27
2022-09-30T12:03:35.551Z,8.07
2022-09-30T12:06:08.774Z,8.30
2022-09-30T12:08:41.740Z,7.53
2022-09-30T12:11:13.104Z,7.27
2022-09-30T12:13:44.653Z,7.97
2022-09-30T12:16:17.874Z,7.40
2022-09-30T12:18:49.818Z,7.73
2022-09-30T12:21:22.805Z,8.20
2022-09-30T12:23:55.949Z,7.00
2022-09-30T12:26:24.037Z,7.17
2022-09-30T12:29:15.123Z,6.17
2022-09-30T12:32:08.968Z,6.90
2022-09-30T12:34:53.240Z,7.03
2022-09-30T12:37:38.126Z,6.90
2022-09-30T12:40:24.891Z,5.40
2022-09-30T12:43:08.152Z,5.67
2022-09-30T12:46:03.937Z,6.67
2022-09-30T12:48:39.043Z,6.63
2022-09-30T12:51:08.330Z,10.37
2022-09-30T12:53:38.804Z,5.87
2022-09-30T12:56:09.639Z,6.70
2022-09-30T12:58:43.884Z,5.70
2022-09-30T13:01:15.264Z,5.80
2022-09-30T13:03:51.469Z,5.50
2022-09-30T13:06:21.519Z,5.20
2022-09-30T13:09:20.303Z,5.47
2022-09-30T13:11:48.524Z,6.20
2022-09-30T13:14:34.243Z,6.40
2022-09-30T13:17:23.540Z,5.90
2022-09-30T13:19:54.650Z,6.33
2022-09-30T13:22:56.083Z,5.47
2022-09-30T13:25:23.915Z,6.23
2022-09-30T13:27:55.387Z,6.50
2022-09-30T13:30:45.765Z,6.70
2022-09-30T13:33:32.349Z,6.70
2022-09-30T13:36:11.095Z,5.87
2022-09-30T13:38:41.457Z,5.57
2022-09-30T13:41:18.025Z,5.87
2022-09-30T13:43:50.887Z,5.70
2022-09-30T13:46:28.326Z,5.80
2022-09-30T13:49:01.460Z,6.20
2022-09-30T13:51:33.613Z,4.90
2022-09-30T13:54:08.290Z,5.37
2022-09-30T13:56:39.915Z,6.20
2022-09-30T13:59:31.467Z,6.30
2022-09-30T14:02:24.573Z,5.77
2022-09-30T14:05:23.494Z,5.80
2022-09-30T14:08:10.338Z,7.10
2022-09-30T14:10:57.034Z,6.77
2022-09-30T14:13:41.695Z,6.83
2022-09-30T14:16:37.559Z,6.73
2022-09-30T14:19:29.125Z,5.30
2022-09-30T14:21:59.596Z,4.97
2022-09-30T14:24:36.507Z,4.63
2022-09-30T14:27:29.460Z,4.80
2022-09-30T14:30:10.898Z,4.80
2022-09-30T14:32:46.105Z,4.37
2022-09-30T14:35:18.864Z,4.77
2022-09-30T14:37:50.167Z,4.50
2022-09-30T14:40:24.707Z,4.60
2022-09-30T14:42:53.095Z,4.20
2022-09-30T14:45:27.272Z,5.23
2022-09-30T14:47:58.463Z,4.90
2022-09-30T14:50:31.129Z,5.30
2022-09-30T14:53:00.521Z,4.80
2022-09-30T14:55:31.824Z,4.90
2022-09-30T14:58:22.517Z,5.13
2022-09-30T15:00:58.584Z,5.10
2022-09-30T15:03:27.045Z,4.57
2022-09-30T15:05:55.151Z,4.70
2022-09-30T15:08:23.616Z,4.00
2022-09-30T15:10:56.378Z,4.80
2022-09-30T15:13:28.340Z,4.70
2022-09-30T15:15:56.324Z,4.40
2022-09-30T15:18:31.188Z,4.30
2022-09-30T15:21:02.573Z,4.90
2022-09-30T15:23:33.442Z,5.10
2022-09-30T15:26:03.555Z,4.00
2022-09-30T15:28:33.107Z,4.07
2022-09-30T15:31:01.541Z,4.80
2022-09-30T15:33:31.865Z,4.27
2022-09-30T15:36:06.575Z,4.37
2022-09-30T15:38:36.979Z,7.97
2022-09-30T15:41:09.957Z,5.80
2022-09-30T15:43:41.259Z,5.30
2022-09-30T15:46:26.771Z,4.87
2022-09-30T15:48:55.918Z,4.13
2022-09-30T15:51:26.284Z,4.20
2022-09-30T15:53:57.956Z,5.37
2022-09-30T15:56:32.918Z,4.03
2022-09-30T15:59:02.068Z,3.93
2022-09-30T16:01:36.472Z,3.30
2022-09-30T16:04:14.317Z,3.20
2022-09-30T16:06:47.824Z,4.30
2022-09-30T16:09:23.545Z,3.27
2022-09-30T16:12:03.489Z,3.23
2022-09-30T16:14:35.127Z,3.40
2022-09-30T16:17:06.050Z,3.00
2022-09-30T16:19:34.466Z,2.93
2022-09-30T16:22:02.678Z,4.70
2022-09-30T16:25:04.020Z,3.30
2022-09-30T16:27:33.927Z,3.30
2022-09-30T16:30:02.296Z,2.83
2022-09-30T16:32:33.801Z,3.13
2022-09-30T16:35:01.580Z,3.70
2022-09-30T16:37:29.370Z,3.50
2022-09-30T16:40:02.816Z,3.33
2022-09-30T16:42:32.892Z,3.40
2022-09-30T16:45:01.955Z,3.00
2022-09-30T16:47:29.728Z,2.63
2022-09-30T16:49:57.605Z,2.60
2022-09-30T16:52:26.051Z,2.50
2022-09-30T16:54:53.879Z,3.07
2022-09-30T16:57:21.652Z,2.70
2022-09-30T16:59:49.414Z,3.27
2022-09-30T17:02:18.682Z,2.80
2022-09-30T17:04:47.240Z,3.20
2022-09-30T17:07:15.166Z,3.17
2022-09-30T17:09:44.126Z,3.53
2022-09-30T17:12:13.220Z,3.50
2022-09-30T17:14:43.904Z,3.80
2022-09-30T17:17:13.581Z,4.00
2022-09-30T17:19:43.083Z,3.70
2022-09-30T17:22:10.837Z,4.03
2022-09-30T17:24:38.596Z,3.77
2022-09-30T17:27:07.768Z,4.47
2022-09-30T17:29:41.758Z,3.97
2022-09-30T17:32:10.077Z,4.20
2022-09-30T17:34:37.830Z,4.80
2022-09-30T17:39:35.859Z,5.67
2022-09-30T17:42:21.143Z,6.77
2022-09-30T17:44:48.866Z,7.23
2022-09-30T17:47:16.615Z,6.23
2022-09-30T17:49:44.509Z,7.20
2022-09-30T17:52:15.458Z,7.90
2022-09-30T17:54:43.184Z,6.30
2022-09-30T17:57:11.000Z,8.20
2022-09-30T17:59:38.751Z,8.67
2022-09-30T18:02:06.480Z,8.20
2022-09-30T18:04:35.428Z,6.83
2022-09-30T18:07:03.184Z,7.23
2022-09-30T18:09:33.054Z,9.37
2022-09-30T18:12:00.906Z,9.17
2022-09-30T18:14:33.029Z,7.13
2022-09-30T18:17:00.698Z,7.33
2022-09-30T18:19:28.614Z,6.50
2022-09-30T18:21:56.346Z,6.27
2022-09-30T18:24:44.087Z,6.70
2022-09-30T18:27:13.422Z,10.97
2022-09-30T18:29:41.126Z,10.57
2022-09-30T18:32:09.084Z,9.37
2022-09-30T18:34:36.801Z,9.30
2022-09-30T18:37:06.408Z,8.10
2022-09-30T18:39:37.160Z,8.67
2022-09-30T18:42:05.342Z,9.70
2022-09-30T18:44:37.366Z,12.30
2022-09-30T18:47:05.401Z,17.10
2022-09-30T18:49:33.151Z,17.40
2022-09-30T18:52:01.780Z,13.30
2022-09-30T18:54:29.854Z,15.07
2022-09-30T18:56:57.584Z,14.47
2022-09-30T18:59:25.853Z,15.00
2022-09-30T19:01:55.684Z,18.43
2022-09-30T19:04:23.442Z,11.87
2022-09-30T19:06:51.128Z,11.73
2022-09-30T19:09:18.867Z,10.00
2022-09-30T19:11:47.962Z,8.87
2022-09-30T19:14:16.200Z,10.17
2022-09-30T19:16:44.557Z,11.33
2022-09-30T19:19:13.635Z,11.50
2022-09-30T19:21:41.320Z,11.57
2022-09-30T19:24:10.132Z,11.47
2022-09-30T19:26:40.181Z,13.43
2022-09-30T19:29:09.556Z,12.57
2022-09-30T19:31:38.005Z,11.97
2022-09-30T19:34:06.186Z,11.57
2022-09-30T19:36:44.879Z,10.33
2022-09-30T19:39:15.713Z,10.70
2022-09-30T19:41:44.613Z,9.70
2022-09-30T19:44:12.392Z,9.67
2022-09-30T19:46:41.063Z,9.83
2022-09-30T19:49:08.859Z,11.63
2022-09-30T19:51:38.173Z,10.20
2022-09-30T19:54:07.657Z,9.47
2022-09-30T19:56:36.313Z,9.20
2022-09-30T19:59:05.008Z,9.50
2022-09-30T20:01:34.559Z,10.10
2022-09-30T20:04:05.161Z,9.63
2022-09-30T20:06:34.191Z,9.83
2022-09-30T20:09:06.485Z,10.40
2022-09-30T20:11:36.902Z,9.10
2022-09-30T20:14:24.032Z,8.77
2022-09-30T20:16:51.993Z,9.40
2022-09-30T20:19:20.457Z,9.80
2022-09-30T20:21:49.897Z,10.87
2022-09-30T20:24:19.669Z,10.60
2022-09-30T20:26:48.002Z,12.57
2022-09-30T20:29:16.663Z,11.37
2022-09-30T20:31:44.902Z,10.40
2022-09-30T20:34:14.650Z,9.20
2022-09-30T20:36:42.810Z,9.97
2022-09-30T20:39:12.064Z,9.20
2022-09-30T20:41:41.831Z,12.43
2022-09-30T20:44:13.601Z,18.43
2022-09-30T20:46:42.858Z,10.57
2022-09-30T20:49:10.769Z,10.57
2022-09-30T20:51:38.724Z,11.27
2022-09-30T20:54:06.473Z,11.17
2022-09-30T20:56:50.118Z,10.77
2022-09-30T20:59:24.031Z,12.90
2022-09-30T21:01:51.757Z,12.17
2022-09-30T21:04:19.488Z,11.80
2022-09-30T21:06:47.637Z,12.13
2022-09-30T21:09:15.551Z,10.83
2022-09-30T21:11:43.269Z,11.00
2022-09-30T21:14:11.102Z,10.20
2022-09-30T21:16:40.233Z,13.30
2022-09-30T21:19:10.391Z,11.27
2022-09-30T21:21:38.087Z,12.27
2022-09-30T21:24:05.731Z,12.17
2022-09-30T21:26:33.463Z,11.80
2022-09-30T21:29:02.098Z,11.83
2022-09-30T21:31:30.040Z,13.23
2022-09-30T21:34:00.879Z,11.03
2022-09-30T21:36:32.068Z,11.80
2022-09-30T21:39:02.388Z,12.67
2022-09-30T21:41:31.327Z,11.37
2022-09-30T21:43:59.680Z,11.80
2022-09-30T21:46:27.783Z,12.17
2022-09-30T21:49:06.887Z,11.27
2022-09-30T21:51:35.452Z,10.80
2022-09-30T21:54:03.539Z,9.90
2022-09-30T21:56:31.531Z,10.40
2022-09-30T21:58:59.436Z,10.27
2022-09-30T22:01:27.143Z,9.80
2022-09-30T22:03:54.922Z,9.63
2022-09-30T22:06:24.099Z,12.53
2022-09-30T22:08:51.772Z,10.10
2022-09-30T22:11:24.471Z,10.30
2022-09-30T22:13:55.498Z,9.90
2022-09-30T22:16:25.496Z,9.47
2022-09-30T22:18:54.628Z,9.63
2022-09-30T22:21:24.396Z,9.23
2022-09-30T22:23:52.872Z,9.97
2022-09-30T22:26:22.771Z,9.20
2022-09-30T22:28:55.598Z,9.00
2022-09-30T22:31:25.727Z,8.73
2022-09-30T22:34:13.195Z,9.43
2022-09-30T22:36:59.991Z,9.47
2022-09-30T22:39:28.196Z,9.37
2022-09-30T22:41:57.092Z,9.77
2022-09-30T22:44:26.758Z,9.47
2022-09-30T22:46:54.892Z,8.37
2022-09-30T22:49:24.326Z,8.67
2022-09-30T22:51:53.819Z,8.87
2022-09-30T22:54:22.108Z,9.13
2022-09-30T22:56:50.284Z,9.47
2022-09-30T22:59:18.351Z,8.77
2022-09-30T23:01:46.646Z,8.77
2022-09-30T23:04:14.819Z,9.60
2022-09-30T23:06:42.761Z,9.17
2022-09-30T23:09:12.063Z,7.93
2022-09-30T23:11:42.217Z,7.67
2022-09-30T23:14:10.458Z,7.33
2022-09-30T23:16:38.297Z,7.30
2022-09-30T23:19:06.469Z,7.23
2022-09-30T23:21:34.847Z,6.87
2022-09-30T23:24:03.688Z,6.97
2022-09-30T23:26:32.821Z,7.33
2022-09-30T23:29:02.067Z,6.50
2022-09-30T23:31:31.304Z,7.77
2022-09-30T23:34:02.550Z,7.07
2022-09-30T23:36:33.054Z,7.37
2022-09-30T23:39:08.228Z,6.87
2022-09-30T23:41:37.571Z,6.73
2022-09-30T23:44:05.609Z,7.33
2022-09-30T23:46:33.635Z,8.00
2022-09-30T23:49:01.374Z,8.40
2022-09-30T23:51:29.123Z,8.03
2022-09-30T23:53:56.832Z,8.33
2022-09-30T23:56:25.013Z,8.80
2022-09-30T23:58:54.135Z,8.20
